Latest Coastal Weather Observations for Yarram Airport

IDV60701

Issued at 9:21 am EST Thursday 25 August 2016 (issued every 10 minutes, with the page automatically refreshed every 10 minutes)

About coastal observations | Map of coastal stations | Coastal observations for VIC | Marine services | Other Formats
Station Details ID: 085151 Name: YARRAM AIRPORT Lat: -38.56 Lon: 146.75 Height: 17.9 m
Data from the previous 72 hours. | See also: Recent months at Yarram Airport
Date/Time
EST
Temp
°C
Wind Pressure Rain since
9am
mm
Weather Cloud Vis
km
Sea
Height
m
Swell
Dir  Spd
kts
Gust
kts
hPa Trend Height
m
Period
s
Dir
25/09:00am 8.5 WNW 12 15 1012.8 - 1.2 - - - - - - -
25/08:30am 9.2 W 11 15 1012.7 - 1.2 - - - - - - -
25/08:00am 6.7 WNW 8 10 1012.5 - 1.2 - - - - - - -
25/07:30am 6.9 NW 9 13 1011.9 - 1.2 - - - - - - -
25/07:00am 5.8 WNW 9 11 1012.1 - 1.0 - - - - - - -
25/06:30am 5.9 WSW 9 11 1011.9 - 0.6 - - - - - - -
25/06:00am 4.1 WNW 6 7 1011.5 - 0.6 Recent precip. - - - - - -
25/05:30am 5.0 WNW 5 6 1011.2 - 0.6 - - - - - - -
25/05:00am 5.9 WNW 7 7 1011.3 - 0.4 - - - - - - -
25/04:30am 5.6 W 7 8 1011.2 - 0.4 - - - - - - -
25/04:00am 4.4 NW 7 8 1011.1 - 0.4 - - - - - - -
25/03:30am 6.1 NW 6 7 1011.2 - 0.4 - - - - - - -
25/03:00am 6.5 WNW 9 10 1011.4 - 0.4 Recent precip. - - - - - -
25/02:30am 6.7 NW 8 10 1011.3 - 0.4 - - - - - - -
25/02:00am 6.7 WNW 8 11 1011.6 - 0.2 - - - - - - -
25/01:30am 6.5 W 7 8 1011.9 - 0.2 - - - - - - -
25/01:00am 6.2 WNW 6 8 1012.2 - 0.2 - - - - - - -
25/12:30am 5.7 WNW 4 4 1012.2 - 0.0 - - - - - - -
25/12:00am 4.9 NW 6 7 1012.2 - 0.0 - - - - - - -
 
Date/Time
EST
Temp
°C
Wind Pressure Rain since
9am
mm
Weather Cloud Vis
km
Sea
Height
m
Swell
Dir  Spd
kts
Gust
kts
hPa Trend Height
m
Period
s
Dir
24/11:30pm 6.1 WNW 6 7 1012.6 - 0.0 - - - - - - -
24/11:00pm 6.6 WNW 8 9 1012.7 - 0.0 - - - - - - -
24/10:30pm 4.6 WNW 6 8 1012.9 - 0.0 - - - - - - -
24/10:00pm 4.6 WNW 6 7 1013.0 - 0.0 - - - - - - -
24/09:30pm 4.4 NW 7 7 1013.2 - 0.0 - - - - - - -
24/09:00pm 5.1 NW 6 8 1013.4 - 0.0 - - - - - - -
24/08:30pm 5.2 NW 5 7 1013.3 - 0.0 - - - - - - -
24/08:00pm 6.0 NW 5 6 1013.4 - 0.0 - - - - - - -
24/07:30pm 7.5 W 6 7 1013.4 - 0.0 - - - - - - -
24/07:00pm 8.3 W 5 7 1013.4 - 0.0 - - - - - - -
24/06:30pm 8.8 W 5 7 1013.2 - 0.0 - - - - - - -
24/06:00pm 8.9 CALM 0 0 1013.1 - 0.0 - - - - - - -
24/05:30pm 9.5 CALM 0 2 1013.0 - 0.0 - - - - - - -
24/05:00pm 9.7 S 6 8 1012.9 - 0.0 - - - - - - -
24/04:30pm 10.2 SSW 7 9 1012.8 - 0.0 - - - - - - -
24/04:00pm 10.0 SSW 9 11 1013.0 - 0.0 - - - - - - -
24/03:30pm 11.0 SSW 8 11 1013.1 - 0.0 - - - - - - -
24/03:00pm 11.7 SW 4 5 1013.2 - 0.0 - - - - - - -
24/02:30pm 11.7 SSE 5 8 1013.2 - 0.0 - - - - - - -
24/02:00pm 11.4 SSW 4 6 1013.5 - 0.0 - - - - - - -
24/01:30pm 11.6 S 6 9 1013.5 - 0.0 - - - - - - -
24/01:00pm 11.8 SSW 9 11 1013.9 - 0.0 - - - - - - -
24/12:30pm 11.8 SSW 9 11 1014.2 - 0.0 - - - - - - -
24/12:00pm 11.6 SSW 9 13 1014.6 - 0.0 - - - - - - -
24/11:30am 11.3 S 9 13 1015.0 - 0.0 - - - - - - -
24/11:00am 10.9 S 7 9 1015.3 - 0.0 - - - - - - -
24/10:30am 10.5 SSW 8 11 1015.7 - 0.0 - - - - - - -
24/10:00am 10.5 SW 7 8 1015.8 - 0.0 - - - - - - -
24/09:30am 10.2 WSW 5 7 1016.0 - 0.0 - - - - - - -
24/09:00am 8.8 W 5 6 1016.2 - 0.2 - - - - - - -
24/08:30am 7.1 NW 4 5 1016.4 - 0.2 - - - - - - -
24/08:00am 4.5 NW 4 5 1016.4 - 0.2 - - - - - - -
24/07:30am 2.2 WNW 5 5 1016.5 - 0.2 - - - - - - -
24/07:00am 0.5 NNW 1 3 1016.5 - 0.2 - - - - - - -
24/06:30am 0.1 NNW 3 4 1016.3 - 0.2 - - - - - - -
24/06:00am 1.9 NW 5 6 1016.2 - 0.2 - - - - - - -
24/05:30am 1.6 WNW 5 7 1016.2 - 0.2 - - - - - - -
24/05:00am 1.1 WNW 3 4 1016.3 - 0.2 - - - - - - -
24/04:30am 1.3 NW 3 4 1016.1 - 0.2 - - - - - - -
24/04:00am 0.8 NNW 4 5 1016.1 - 0.2 - - - - - - -
24/03:30am 1.2 NW 3 4 1016.2 - 0.2 - - - - - - -
24/03:00am 1.6 WNW 2 3 1016.4 - 0.2 - - - - - - -
24/02:30am 2.4 W 4 5 1016.6 - 0.2 - - - - - - -
24/02:00am 2.7 CALM 0 0 1017.0 - 0.2 - - - - - - -
24/01:30am 3.1 N 4 5 1017.1 - 0.2 - - - - - - -
24/01:00am 4.5 NNW 5 6 1017.3 - 0.2 - - - - - - -
24/12:30am 3.9 NNW 5 6 1017.3 - 0.2 - - - - - - -
24/12:00am 4.3 NNW 6 7 1017.3 - 0.2 - - - - - - -
 
Date/Time
EST
Temp
°C
Wind Pressure Rain since
9am
mm
Weather Cloud Vis
km
Sea
Height
m
Swell
Dir  Spd
kts
Gust
kts
hPa Trend Height
m
Period
s
Dir
23/11:30pm 3.1 NNW 5 5 1017.2 - 0.2 - - - - - - -
23/11:00pm 4.3 NNW 4 5 1017.3 - 0.2 - - - - - - -
23/10:30pm 3.9 NW 4 5 1017.4 - 0.2 - - - - - - -
23/10:00pm 4.7 W 5 6 1017.4 - 0.2 - - - - - - -
23/09:30pm 4.8 NW 6 7 1017.7 - 0.0 - - - - - - -
23/09:00pm 6.3 WNW 6 7 1017.9 - 0.0 - - - - - - -
23/08:30pm 6.7 WNW 7 8 1017.9 - 0.0 - - - - - - -
23/08:00pm 6.0 WNW 5 6 1017.8 - 0.0 - - - - - - -
23/07:30pm 7.5 W 7 8 1017.7 - 0.0 - - - - - - -
23/07:00pm 7.1 W 6 6 1017.7 - 0.0 - - - - - - -
23/06:30pm 8.3 WSW 6 7 1017.5 - 0.0 - - - - - - -
23/06:00pm 9.0 WSW 7 9 1017.4 - 0.0 - - - - - - -
23/05:30pm 9.4 SW 5 6 1017.2 - 0.0 - - - - - - -
23/05:00pm 10.3 SW 7 9 1017.1 - 0.0 - - - - - - -
23/04:30pm 11.0 SW 8 12 1017.0 - 0.0 - - - - - - -
23/04:00pm 12.0 SW 9 12 1016.7 - 0.0 - - - - - - -
23/03:30pm 12.6 SSW 6 10 1016.4 - 0.0 - - - - - - -
23/03:00pm 11.9 SSW 7 10 1016.2 - 0.0 - - - - - - -
23/02:30pm 12.3 S 10 13 1016.2 - 0.0 - - - - - - -
23/02:00pm 12.0 SW 12 15 1016.1 - 0.0 - - - - - - -
23/01:30pm 12.7 SSW 10 13 1016.0 - 0.0 - - - - - - -
23/01:00pm 12.5 SW 10 13 1016.2 - 0.0 - - - - - - -
23/12:30pm 12.8 SW 11 14 1016.3 - 0.0 - - - - - - -
23/12:00pm 12.1 SW 9 13 1016.6 - 0.0 - - - - - - -
23/11:30am 12.7 W 7 11 1016.9 - 0.0 - - - - - - -
23/11:00am 11.4 SSW 4 6 1017.4 - 0.0 - - - - - - -
23/10:30am 10.2 SSW 6 8 1017.5 - 0.0 - - - - - - -
23/10:00am 11.2 WSW 10 13 1017.7 - 0.0 - - - - - - -
23/09:30am 10.8 W 8 11 1017.5 - 0.0 - - - - - - -
23/09:00am 9.5 WNW 7 8 1017.3 - 0.0 - - - - - - -
23/08:30am 8.7 WNW 6 8 1017.1 - 0.0 - - - - - - -
23/08:00am 6.7 NW 6 7 1017.0 - 0.0 - - - - - - -
23/07:30am 4.8 WNW 5 6 1016.7 - 0.0 - - - - - - -
23/07:00am 4.4 WNW 5 7 1016.4 - 0.0 - - - - - - -
23/06:30am 4.3 NW 7 7 1016.2 - 0.0 - - - - - - -
23/06:00am 4.5 WNW 6 7 1015.9 - 0.0 - - - - - - -
23/05:30am 5.8 WNW 6 7 1015.7 - 0.0 - - - - - - -
23/05:00am 6.4 WNW 6 7 1015.7 - 0.0 - - - - - - -
23/04:30am 6.8 WNW 6 6 1015.5 - 0.0 - - - - - - -
23/04:00am 7.6 WNW 5 6 1015.4 - 0.0 - - - - - - -
23/03:30am 7.4 W 6 7 1015.1 - 0.0 - - - - - - -
23/03:00am 8.1 W 5 6 1015.2 - 0.0 - - - - - - -
23/02:30am 8.3 W 6 7 1015.3 - 0.0 - - - - - - -
23/02:00am 8.1 W 6 8 1015.5 - 0.0 - - - - - - -
23/01:30am 8.0 WNW 6 7 1015.7 - 0.0 - - - - - - -
23/01:00am 7.4 NW 7 8 1015.6 - 0.0 - - - - - - -
23/12:30am 6.7 WNW 6 6 1015.6 - 0.0 - - - - - - -
23/12:00am 7.6 W 6 7 1015.6 - 0.0 - - - - - - -
 
Date/Time
EST
Temp
°C
Wind Pressure Rain since
9am
mm
Weather Cloud Vis
km
Sea
Height
m
Swell
Dir  Spd
kts
Gust
kts
hPa Trend Height
m
Period
s
Dir
22/11:30pm 8.1 WSW 4 5 1015.5 - 0.0 - - - - - - -
22/11:00pm 8.2 WNW 4 5 1015.7 - 0.0 - - - - - - -
22/10:30pm 8.1 NW 5 6 1015.7 - 0.0 - - - - - - -
22/10:00pm 7.7 NW 6 7 1015.7 - 0.0 - - - - - - -
22/09:30pm 6.3 WNW 1 6 1015.4 - 0.0 - - - - - - -
22/09:00pm 8.1 CALM 0 0 1015.3 - 0.0 - - - - - - -
22/08:30pm 9.1 CALM 0 0 1015.3 - 0.0 - - - - - - -
22/08:00pm 9.7 W 3 4 1015.0 - 0.0 - - - - - - -
22/07:30pm 10.2 CALM 0 0 1014.8 - 0.0 - - - - - - -
22/07:00pm 10.2 SE 4 5 1014.4 - 0.0 - - - - - - -
22/06:30pm 11.0 W 2 5 1014.2 - 0.0 - - - - - - -
22/06:00pm 10.7 ESE 1 3 1013.7 - 0.0 - - - - - - -
22/05:30pm 11.2 SE 3 4 1013.4 - 0.0 - - - - - - -
22/05:00pm 11.9 S 5 6 1013.2 - 0.0 - - - - - - -
22/04:30pm 12.2 ESE 5 6 1012.9 - 0.0 - - - - - - -
22/04:00pm 12.5 SE 7 9 1012.7 - 0.0 - - - - - - -
22/03:30pm 13.1 SE 9 11 1012.4 - 0.0 - - - - - - -
22/03:00pm 13.4 SSE 11 14 1012.2 - 0.0 - - - - - - -
22/02:30pm 15.3 WSW 6 10 1012.2 - 0.0 - - - - - - -
22/02:00pm 14.8 WSW 6 8 1012.5 - 0.0 - - - - - - -
22/01:30pm 14.8 SSW 4 6 1012.8 - 0.0 - - - - - - -
22/01:00pm 13.4 NNW 4 5 1013.0 - 0.0 - - - - - - -
22/12:30pm 13.3 NW 3 5 1013.4 - 0.0 - - - - - - -
22/12:00pm 13.9 NW 3 7 1013.9 - 0.0 - - - - - - -
22/11:30am 12.4 W 4 6 1014.2 - 0.0 - - - - - - -
22/11:00am 11.7 WNW 3 3 1014.5 - 0.0 - - - - - - -
22/10:30am 11.0 SSW 5 5 1014.5 - 0.0 - - - - - - -
22/10:00am 10.8 W 3 5 1014.6 - 0.0 - - - - - - -
22/09:30am 9.9 SW 2 4 1014.6 - 0.0 - - - - - - -

Other Formats:

Comma delimited format used in spreadsheet applications
http://www.bom.gov.au/fwo/IDV60701/IDV60701.95890.axf

JavaScript Object Notation format (JSON) in row-major order
http://www.bom.gov.au/fwo/IDV60701/IDV60701.95890.json